Time;durP1;ratioP1;P1;durP2;ratioP2;P2;SDS_P1;SDS_P2;PMS_P1;PMS_P2;Temp;Humidity;BMP_temperature;BMP_pressure;BME280_temperature;BME280_humidity;BME280_pressure;Samples;Min_cycle;Max_cycle;Signal;HPM_P1;HPM_P2
2023/03/18 00:01:48;;;;;;;6.53;6.13;;;11.00;99.90;;;;;;5034130;28;20206;-65
2023/03/18 00:04:13;;;;;;;6.40;5.90;;;11.00;99.90;;;;;;5031485;28;20194;-65
2023/03/18 00:06:39;;;;;;;6.63;6.23;;;11.00;99.90;;;;;;5031762;28;20168;-65
2023/03/18 00:09:05;;;;;;;7.03;6.53;;;11.00;99.90;;;;;;5031175;28;20257;-65
2023/03/18 00:11:31;;;;;;;6.97;6.37;;;11.00;99.90;;;;;;5030550;28;20642;-65
2023/03/18 00:13:58;;;;;;;7.10;6.60;;;11.00;99.90;;;;;;5029992;28;20249;-65
2023/03/18 00:16:24;;;;;;;6.80;6.40;;;11.00;99.90;;;;;;5042602;28;20542;-65
2023/03/18 00:18:49;;;;;;;6.97;6.50;;;11.10;99.90;;;;;;5051172;28;20216;-65
2023/03/18 00:21:15;;;;;;;6.53;6.13;;;11.10;99.90;;;;;;5040299;28;20175;-65
2023/03/18 00:23:41;;;;;;;7.23;6.60;;;11.10;99.90;;;;;;5031246;28;20222;-65
2023/03/18 00:26:08;;;;;;;7.13;6.63;;;11.10;99.90;;;;;;5039278;28;20214;-65
2023/03/18 00:28:35;;;;;;;6.73;6.30;;;11.10;99.90;;;;;;5051327;28;20179;-65
2023/03/18 00:31:07;;;;;;;7.30;6.67;;;11.10;99.90;;;;;;5043410;28;20188;-65
2023/03/18 00:33:35;;;;;;;6.90;6.50;;;11.00;99.90;;;;;;5030763;28;20241;-65
2023/03/18 00:36:01;;;;;;;7.47;6.87;;;11.00;99.90;;;;;;5031381;28;20559;-65
2023/03/18 00:38:29;;;;;;;6.83;6.43;;;11.00;99.90;;;;;;5031046;28;20171;-66
2023/03/18 00:41:03;;;;;;;6.90;6.30;;;11.00;99.90;;;;;;5038815;28;20244;-65
2023/03/18 00:43:32;;;;;;;8.10;7.03;;;11.00;99.90;;;;;;5054568;28;20283;-65
2023/03/18 00:45:59;;;;;;;7.43;6.70;;;11.00;99.90;;;;;;5049338;28;20171;-65
2023/03/18 00:48:25;;;;;;;7.40;6.63;;;11.00;99.90;;;;;;5034511;28;20928;-65
2023/03/18 00:50:51;;;;;;;6.33;6.00;;;11.00;99.90;;;;;;5037420;28;20253;-65
2023/03/18 00:53:17;;;;;;;6.80;6.30;;;11.00;99.90;;;;;;5054228;28;20365;-65
2023/03/18 00:55:44;;;;;;;6.20;5.80;;;11.00;99.90;;;;;;5052313;28;20171;-65
2023/03/18 00:58:11;;;;;;;6.60;6.20;;;11.10;99.90;;;;;;5034331;28;20540;-65
2023/03/18 01:00:38;;;;;;;7.10;6.50;;;11.10;99.90;;;;;;5034198;28;20167;-65
2023/03/18 01:03:05;;;;;;;6.90;6.20;;;11.10;99.90;;;;;;5053936;28;20263;-65
2023/03/18 01:05:32;;;;;;;7.70;7.00;;;11.10;99.90;;;;;;5054131;28;20206;-66
2023/03/18 01:07:58;;;;;;;8.37;6.27;;;11.10;99.90;;;;;;5034722;28;20618;-65
2023/03/18 01:10:24;;;;;;;7.17;6.30;;;11.20;99.90;;;;;;5033834;28;20689;-65
2023/03/18 01:12:49;;;;;;;6.67;6.17;;;11.20;99.90;;;;;;5033951;28;20211;-65
2023/03/18 01:15:18;;;;;;;8.43;6.47;;;11.10;99.90;;;;;;5034167;28;20226;-65
2023/03/18 01:17:45;;;;;;;6.53;6.13;;;11.10;99.90;;;;;;5049867;28;20237;-65
2023/03/18 01:20:12;;;;;;;7.30;6.80;;;11.10;99.90;;;;;;5053610;28;20174;-65
2023/03/18 01:22:41;;;;;;;6.30;5.93;;;11.00;99.90;;;;;;5038796;28;20648;-65
2023/03/18 01:25:08;;;;;;;7.13;6.53;;;11.00;99.90;;;;;;5033785;28;20214;-65
2023/03/18 01:27:35;;;;;;;6.80;6.10;;;10.90;99.90;;;;;;5047234;28;20227;-66
2023/03/18 01:30:01;;;;;;;7.33;6.83;;;10.80;99.90;;;;;;5053446;28;20602;-65
2023/03/18 01:32:27;;;;;;;6.73;6.30;;;10.80;99.90;;;;;;5041256;28;20231;-65
2023/03/18 01:34:53;;;;;;;6.80;6.30;;;10.80;99.90;;;;;;5033710;28;20272;-65
2023/03/18 01:37:18;;;;;;;8.00;7.47;;;10.80;99.90;;;;;;5043920;28;20249;-65
2023/03/18 01:39:44;;;;;;;7.23;6.80;;;10.80;99.90;;;;;;5053062;28;20167;-65
2023/03/18 01:42:10;;;;;;;7.80;7.30;;;10.80;99.90;;;;;;5044558;28;20681;-66
2023/03/18 01:44:36;;;;;;;7.27;6.77;;;10.80;99.90;;;;;;5033457;28;20176;-66
2023/03/18 01:47:02;;;;;;;13.27;7.37;;;10.70;99.90;;;;;;5037071;28;20186;-65
2023/03/18 01:49:35;;;;;;;8.07;7.37;;;10.80;99.90;;;;;;5022403;28;20900;-65
2023/03/18 01:52:05;;;;;;;6.90;6.50;;;10.70;99.90;;;;;;5013030;28;20570;-66
2023/03/18 01:54:36;;;;;;;7.70;6.90;;;10.70;99.90;;;;;;5013497;28;20206;-65
2023/03/18 01:57:02;;;;;;;6.33;5.93;;;10.70;99.90;;;;;;5024446;28;20240;-65
2023/03/18 01:59:32;;;;;;;7.30;6.70;;;10.80;99.90;;;;;;5052877;28;20174;-65
2023/03/18 02:02:03;;;;;;;6.93;6.43;;;10.80;99.90;;;;;;5048584;28;20183;-65
2023/03/18 02:04:35;;;;;;;7.23;6.73;;;10.80;99.90;;;;;;5033119;28;20181;-65
2023/03/18 02:07:01;;;;;;;7.93;7.43;;;10.80;99.90;;;;;;5037040;28;20182;-65
2023/03/18 02:09:28;;;;;;;8.23;7.40;;;10.70;99.90;;;;;;5052732;28;20175;-65
2023/03/18 02:11:54;;;;;;;8.93;8.43;;;10.70;99.90;;;;;;5050468;28;20215;-65
2023/03/18 02:14:24;;;;;;;7.30;6.83;;;10.70;99.90;;;;;;5032994;28;20202;-65
2023/03/18 02:17:09;;;;;;;7.40;6.90;;;10.60;99.90;;;;;;5034138;28;20176;-65
2023/03/18 02:19:58;;;;;;;8.10;7.30;;;10.60;99.90;;;;;;5052715;28;20201;-65
2023/03/18 02:22:32;;;;;;;8.23;7.60;;;10.60;99.90;;;;;;5052008;28;20286;-65
2023/03/18 02:25:24;;;;;;;9.00;8.37;;;10.50;99.90;;;;;;5052924;28;20198;-65
2023/03/18 02:28:02;;;;;;;8.37;7.77;;;10.40;99.90;;;;;;5051819;28;20171;-64
2023/03/18 02:30:34;;;;;;;11.20;8.87;;;10.40;99.90;;;;;;5052361;28;20652;-65
2023/03/18 02:33:01;;;;;;;7.70;7.00;;;10.20;99.90;;;;;;5042748;28;20558;-65
2023/03/18 02:35:28;;;;;;;7.70;7.13;;;10.20;99.90;;;;;;5032589;28;20175;-65
2023/03/18 02:37:54;;;;;;;10.97;8.30;;;10.10;99.90;;;;;;5040227;28;20178;-65
2023/03/18 02:40:27;;;;;;;7.13;6.63;;;10.00;99.90;;;;;;5052369;28;20175;-65
2023/03/18 02:42:54;;;;;;;7.70;7.00;;;9.90;99.90;;;;;;5051819;28;20187;-65
2023/03/18 02:45:41;;;;;;;8.63;8.00;;;9.80;99.90;;;;;;5052256;28;20175;-65
2023/03/18 02:48:09;;;;;;;8.80;7.93;;;9.70;99.90;;;;;;5051711;28;20220;-66
2023/03/18 02:50:35;;;;;;;10.67;7.70;;;9.70;99.90;;;;;;5052018;28;20174;-65
2023/03/18 02:53:04;;;;;;;9.20;8.30;;;9.60;99.90;;;;;;5044465;28;20203;-65
2023/03/18 02:55:29;;;;;;;9.07;7.97;;;9.50;99.90;;;;;;5032276;28;20171;-65
2023/03/18 02:57:56;;;;;;;7.43;6.70;;;9.40;99.90;;;;;;5032072;28;20186;-66
2023/03/18 03:00:22;;;;;;;8.27;7.47;;;9.40;99.90;;;;;;5032954;28;20172;-65
2023/03/18 03:02:47;;;;;;;8.53;7.77;;;9.40;99.90;;;;;;5031505;28;20247;-65
2023/03/18 03:05:14;;;;;;;7.70;7.10;;;9.30;99.90;;;;;;5032047;28;20641;-65
2023/03/18 03:07:40;;;;;;;7.10;6.70;;;9.20;99.90;;;;;;5032186;28;20177;-64
2023/03/18 03:10:07;;;;;;;9.13;7.77;;;9.20;99.90;;;;;;5031781;28;20242;-65
2023/03/18 03:12:33;;;;;;;8.27;7.67;;;9.10;99.90;;;;;;5032466;28;20210;-65
2023/03/18 03:14:58;;;;;;;7.97;7.40;;;9.00;99.90;;;;;;5051749;28;20194;-64
2023/03/18 03:17:24;;;;;;;7.73;7.20;;;8.90;99.90;;;;;;5051619;28;20248;-65
2023/03/18 03:19:50;;;;;;;9.40;8.47;;;8.80;99.90;;;;;;5031639;28;20182;-65
2023/03/18 03:22:17;;;;;;;7.70;7.10;;;8.70;99.90;;;;;;5031744;28;20195;-65
2023/03/18 03:24:43;;;;;;;9.43;8.63;;;8.70;99.90;;;;;;5049680;28;20209;-65
2023/03/18 03:27:09;;;;;;;9.33;8.50;;;8.60;99.90;;;;;;5051715;28;20175;-64
2023/03/18 03:29:35;;;;;;;7.80;7.23;;;8.60;99.90;;;;;;5034836;28;20172;-64
2023/03/18 03:32:01;;;;;;;9.10;8.40;;;8.60;99.90;;;;;;5047453;28;20237;-65
2023/03/18 03:34:27;;;;;;;8.87;8.03;;;8.70;99.90;;;;;;5031452;28;20199;-65
2023/03/18 03:36:53;;;;;;;7.97;7.37;;;8.70;99.90;;;;;;5033460;28;20175;-65
2023/03/18 03:39:18;;;;;;;7.47;6.90;;;8.80;99.90;;;;;;5051114;28;20253;-65
2023/03/18 03:41:44;;;;;;;7.80;7.20;;;8.80;99.90;;;;;;5050649;28;20187;-65
2023/03/18 03:44:10;;;;;;;10.07;8.30;;;8.80;99.90;;;;;;5031108;28;20175;-65
2023/03/18 03:46:36;;;;;;;8.33;7.80;;;8.90;99.90;;;;;;5030691;28;20164;-65
2023/03/18 03:49:01;;;;;;;9.57;8.70;;;8.90;99.90;;;;;;5049860;28;20167;-65
2023/03/18 03:51:28;;;;;;;8.80;8.10;;;8.90;99.90;;;;;;5051089;28;20374;-65
2023/03/18 03:53:53;;;;;;;8.50;7.90;;;9.00;99.90;;;;;;5033126;28;20603;-65
2023/03/18 03:56:19;;;;;;;8.23;7.60;;;9.00;99.90;;;;;;5030451;28;20167;-65
2023/03/18 03:58:45;;;;;;;8.57;7.87;;;9.00;99.90;;;;;;5045687;28;20162;-65
2023/03/18 04:01:11;;;;;;;8.87;8.10;;;9.00;99.90;;;;;;5051009;28;20668;-66
2023/03/18 04:03:37;;;;;;;9.70;7.77;;;9.00;99.90;;;;;;5037482;28;20589;-65
2023/03/18 04:06:03;;;;;;;8.43;7.83;;;9.00;99.90;;;;;;5031225;28;20263;-65
2023/03/18 04:08:28;;;;;;;9.23;7.93;;;9.00;99.90;;;;;;5043332;28;20224;-64
2023/03/18 04:10:54;;;;;;;8.90;8.10;;;9.00;99.90;;;;;;5051096;28;20178;-64
2023/03/18 04:13:20;;;;;;;9.70;8.87;;;9.00;99.90;;;;;;5039405;28;20294;-65
2023/03/18 04:15:46;;;;;;;9.97;8.47;;;9.00;99.90;;;;;;5034263;28;20649;-64
2023/03/18 04:18:13;;;;;;;9.33;8.53;;;9.00;99.90;;;;;;5043341;28;20171;-64
2023/03/18 04:20:39;;;;;;;9.03;7.97;;;9.00;99.90;;;;;;5054849;28;20178;-64
2023/03/18 04:23:06;;;;;;;9.10;8.27;;;9.00;99.90;;;;;;5047262;28;20199;-64
2023/03/18 04:25:34;;;;;;;9.43;8.47;;;9.00;99.90;;;;;;5034921;28;20259;-64
2023/03/18 04:27:59;;;;;;;11.17;8.10;;;8.90;99.90;;;;;;5040206;28;20235;-64
2023/03/18 04:30:26;;;;;;;9.50;8.10;;;8.90;99.90;;;;;;5054539;28;20170;-64
2023/03/18 04:32:52;;;;;;;9.20;8.47;;;8.90;99.90;;;;;;5050486;28;20195;-65
2023/03/18 04:35:18;;;;;;;8.93;8.10;;;8.90;99.90;;;;;;5034805;28;20649;-65
2023/03/18 04:37:44;;;;;;;8.03;7.53;;;9.00;99.90;;;;;;5036936;28;20325;-66
2023/03/18 04:40:10;;;;;;;8.80;8.00;;;9.00;99.90;;;;;;5054258;28;20170;-64
2023/03/18 04:42:37;;;;;;;8.40;7.83;;;9.00;99.90;;;;;;5053359;28;20676;-65
2023/03/18 04:45:04;;;;;;;8.10;7.40;;;9.00;99.90;;;;;;5034627;28;20172;-64
2023/03/18 04:47:31;;;;;;;8.13;7.47;;;9.10;99.90;;;;;;5034370;28;20179;-64
2023/03/18 04:49:57;;;;;;;8.63;7.80;;;9.10;99.90;;;;;;5034401;28;20649;-64
2023/03/18 04:52:23;;;;;;;10.50;8.03;;;9.10;99.90;;;;;;5034367;28;20198;-65
2023/03/18 04:54:49;;;;;;;9.43;8.73;;;9.20;99.90;;;;;;5051102;28;20209;-64
2023/03/18 04:57:15;;;;;;;10.67;8.03;;;9.20;99.90;;;;;;5053024;28;20552;-64
2023/03/18 04:59:41;;;;;;;8.07;7.47;;;9.20;99.90;;;;;;5037111;28;20189;-64
2023/03/18 05:02:07;;;;;;;8.87;7.97;;;9.20;99.90;;;;;;5033862;28;20199;-64
2023/03/18 05:04:33;;;;;;;7.93;7.17;;;9.20;99.90;;;;;;5034211;28;20203;-65
2023/03/18 05:06:59;;;;;;;9.30;8.40;;;9.20;99.90;;;;;;5034358;28;20206;-65
2023/03/18 05:09:26;;;;;;;8.40;7.70;;;9.10;99.90;;;;;;5053190;28;20285;-65
2023/03/18 05:11:52;;;;;;;10.53;7.73;;;9.10;99.90;;;;;;5053819;28;20202;-65
2023/03/18 05:14:17;;;;;;;14.73;7.53;;;9.20;99.90;;;;;;5036702;28;20738;-64
2023/03/18 05:16:44;;;;;;;8.53;7.60;;;9.20;99.90;;;;;;5033942;28;20210;-65
2023/03/18 05:19:10;;;;;;;9.33;8.43;;;9.20;99.90;;;;;;5049764;28;20550;-65
2023/03/18 05:21:36;;;;;;;10.57;8.17;;;9.20;99.90;;;;;;5053803;28;20254;-65
2023/03/18 05:24:02;;;;;;;10.20;7.70;;;9.20;99.90;;;;;;5038764;28;20192;-65
2023/03/18 05:26:28;;;;;;;7.97;7.33;;;9.20;99.90;;;;;;5032860;28;20545;-65
2023/03/18 05:28:53;;;;;;;8.57;7.73;;;9.30;99.90;;;;;;5046729;28;20182;-65
2023/03/18 05:31:19;;;;;;;8.57;7.83;;;9.30;99.90;;;;;;5053317;28;20181;-65
2023/03/18 05:33:45;;;;;;;8.50;7.80;;;9.30;99.90;;;;;;5042988;28;20215;-65
2023/03/18 05:36:12;;;;;;;8.83;8.13;;;9.30;99.90;;;;;;5033487;28;20188;-65
2023/03/18 05:38:37;;;;;;;8.13;7.53;;;9.30;99.90;;;;;;5043142;28;20183;-64
2023/03/18 05:41:04;;;;;;;8.23;7.53;;;9.30;99.90;;;;;;5053124;28;20654;-64
2023/03/18 05:43:30;;;;;;;8.53;7.83;;;9.30;99.90;;;;;;5044935;28;20246;-65
2023/03/18 05:45:56;;;;;;;8.20;7.67;;;9.30;99.90;;;;;;5033439;28;20548;-65
2023/03/18 05:48:22;;;;;;;7.83;7.20;;;9.30;99.90;;;;;;5035980;28;20191;-66
2023/03/18 05:50:47;;;;;;;8.20;7.03;;;9.40;99.90;;;;;;5042717;28;20673;-65
2023/03/18 05:53:15;;;;;;;7.60;6.93;;;9.40;99.90;;;;;;5033172;28;20195;-64
2023/03/18 05:55:41;;;;;;;7.60;7.00;;;9.40;99.90;;;;;;5033156;28;20168;-65
2023/03/18 05:58:07;;;;;;;8.17;7.53;;;9.50;99.90;;;;;;5036002;28;20178;-65
2023/03/18 06:00:33;;;;;;;8.97;8.27;;;9.50;99.90;;;;;;5052965;28;20179;-64
2023/03/18 06:03:01;;;;;;;7.47;6.60;;;9.50;99.90;;;;;;5050418;28;20659;-64
2023/03/18 06:05:27;;;;;;;8.93;7.73;;;9.50;99.90;;;;;;5033067;28;20200;-64
2023/03/18 06:07:53;;;;;;;7.77;7.00;;;9.50;99.90;;;;;;5033276;28;20183;-65
2023/03/18 06:10:19;;;;;;;8.20;7.60;;;9.50;99.90;;;;;;5052850;28;20236;-66
2023/03/18 06:12:45;;;;;;;7.77;7.27;;;9.50;99.90;;;;;;5052996;28;20210;-65
2023/03/18 06:15:12;;;;;;;8.03;7.43;;;9.50;99.90;;;;;;5034421;28;20656;-64
2023/03/18 06:17:38;;;;;;;7.70;7.00;;;9.50;99.90;;;;;;5033129;28;20229;-64
2023/03/18 06:20:05;;;;;;;7.83;7.33;;;9.50;99.90;;;;;;5048806;28;20186;-65
2023/03/18 06:22:31;;;;;;;8.10;7.50;;;9.50;99.90;;;;;;5052398;28;20662;-65
2023/03/18 06:24:57;;;;;;;8.17;7.57;;;9.50;99.90;;;;;;5051833;28;20182;-64
2023/03/18 06:27:23;;;;;;;7.30;6.80;;;9.50;99.90;;;;;;5052276;28;20706;-64
2023/03/18 06:29:49;;;;;;;8.23;7.53;;;9.50;99.90;;;;;;5050324;28;20183;-64
2023/03/18 06:32:15;;;;;;;7.57;6.97;;;9.50;99.90;;;;;;5052639;28;20199;-64
2023/03/18 06:34:41;;;;;;;9.63;7.43;;;9.60;99.90;;;;;;5052130;28;20206;-64
2023/03/18 06:37:06;;;;;;;7.43;6.93;;;9.60;99.90;;;;;;5052349;28;20175;-65
2023/03/18 06:39:33;;;;;;;8.07;7.37;;;9.60;99.90;;;;;;5041494;28;20184;-64
2023/03/18 06:41:59;;;;;;;8.17;7.47;;;9.60;99.90;;;;;;5031140;28;20199;-65
2023/03/18 06:44:25;;;;;;;7.83;7.17;;;9.60;99.90;;;;;;5040868;28;20705;-64
2023/03/18 06:46:51;;;;;;;7.77;7.27;;;9.60;99.90;;;;;;5052352;28;20202;-65
2023/03/18 06:49:17;;;;;;;10.07;7.60;;;9.60;99.90;;;;;;5044578;28;20191;-64
2023/03/18 06:51:42;;;;;;;7.10;6.60;;;9.70;99.90;;;;;;5032198;28;20237;-65
2023/03/18 06:54:08;;;;;;;7.60;7.00;;;9.80;99.90;;;;;;5037489;28;20284;-65
2023/03/18 06:56:37;;;;;;;7.23;6.53;;;10.00;99.90;;;;;;5052134;28;20569;-65
2023/03/18 06:59:03;;;;;;;7.80;7.20;;;10.30;99.90;;;;;;5046722;28;20194;-66
2023/03/18 07:01:31;;;;;;;8.93;7.60;;;10.90;99.90;;;;;;5030651;28;20187;-66
2023/03/18 07:03:57;;;;;;;7.63;7.00;;;11.50;99.90;;;;;;5031940;28;20175;-65
2023/03/18 07:06:23;;;;;;;7.10;6.50;;;12.20;99.90;;;;;;5031852;28;20241;-65
2023/03/18 07:08:49;;;;;;;6.77;6.17;;;12.80;99.90;;;;;;5032378;28;20179;-65
2023/03/18 07:11:15;;;;;;;7.37;6.87;;;13.50;99.90;;;;;;5051071;28;20529;-66
2023/03/18 07:13:41;;;;;;;6.37;5.77;;;14.10;99.90;;;;;;5051726;28;20613;-66
2023/03/18 07:16:07;;;;;;;7.00;6.40;;;14.40;99.90;;;;;;5033484;28;20207;-65
2023/03/18 07:18:32;;;;;;;6.70;6.30;;;14.40;99.90;;;;;;5031536;28;20179;-65
2023/03/18 07:20:58;;;;;;;5.90;5.30;;;14.30;99.90;;;;;;5048227;28;20647;-64
2023/03/18 07:23:24;;;;;;;6.93;6.40;;;14.30;99.90;;;;;;5051442;28;20198;-64
2023/03/18 07:25:50;;;;;;;5.13;4.73;;;14.30;99.90;;;;;;5035897;28;20197;-64
2023/03/18 07:28:16;;;;;;;6.87;6.27;;;14.40;99.90;;;;;;5031377;28;20191;-64
2023/03/18 07:30:41;;;;;;;5.37;5.07;;;14.50;99.90;;;;;;5044560;28;20186;-64
2023/03/18 07:33:07;;;;;;;8.93;4.73;;;14.80;99.90;;;;;;5051171;28;20293;-65
2023/03/18 07:35:33;;;;;;;5.10;4.70;;;15.10;99.90;;;;;;5040196;28;20257;-64
2023/03/18 07:37:59;;;;;;;5.10;4.70;;;15.30;99.90;;;;;;5043108;28;20350;-65
2023/03/18 07:40:24;;;;;;;5.07;4.60;;;15.40;99.90;;;;;;5031036;28;20207;-64
2023/03/18 07:42:50;;;;;;;5.00;4.33;;;15.60;99.90;;;;;;5036744;28;20571;-64
2023/03/18 07:45:17;;;;;;;4.47;4.17;;;15.80;99.90;;;;;;5051133;28;20174;-64
2023/03/18 07:47:42;;;;;;;4.40;4.13;;;16.00;99.90;;;;;;5049548;28;20175;-64
2023/03/18 07:50:09;;;;;;;5.03;4.30;;;16.20;99.90;;;;;;5050318;28;20201;-64
2023/03/18 07:52:36;;;;;;;5.10;4.57;;;16.20;99.90;;;;;;5048640;28;20198;-64
2023/03/18 07:55:02;;;;;;;5.30;5.00;;;16.30;99.90;;;;;;5031258;28;20238;-64
2023/03/18 07:57:28;;;;;;;4.60;4.30;;;16.60;99.90;;;;;;5031488;28;20171;-64
2023/03/18 07:59:55;;;;;;;4.73;4.47;;;17.00;99.90;;;;;;5050662;28;20171;-64
2023/03/18 08:02:20;;;;;;;5.50;4.53;;;17.20;99.90;;;;;;5050934;28;20187;-65
2023/03/18 08:04:46;;;;;;;4.30;3.90;;;17.50;99.90;;;;;;5030742;28;20254;-64
2023/03/18 08:07:12;;;;;;;3.77;3.47;;;17.80;99.90;;;;;;5031179;28;20171;-64
2023/03/18 08:09:38;;;;;;;4.23;4.03;;;18.00;99.90;;;;;;5046059;28;20655;-64
2023/03/18 08:12:03;;;;;;;4.03;3.83;;;17.90;99.90;;;;;;5051463;28;20218;-64
2023/03/18 08:14:30;;;;;;;5.13;4.73;;;17.90;99.90;;;;;;5048892;28;20219;-64
2023/03/18 08:16:56;;;;;;;4.07;3.87;;;18.00;99.90;;;;;;5043609;28;20234;-65
2023/03/18 08:19:21;;;;;;;3.90;3.60;;;18.10;99.90;;;;;;5030903;28;20550;-64
2023/03/18 08:21:47;;;;;;;4.60;3.93;;;18.30;99.90;;;;;;5036075;28;20206;-65
2023/03/18 08:24:13;;;;;;;5.77;5.27;;;18.50;99.90;;;;;;5048447;28;20240;-65
2023/03/18 08:26:39;;;;;;;3.95;3.58;;;18.80;99.90;;;;;;5047372;28;20262;-64
2023/03/18 08:29:05;;;;;;;3.50;3.30;;;19.10;99.90;;;;;;5030989;28;20171;-66
2023/03/18 08:31:31;;;;;;;3.53;3.30;;;19.30;99.90;;;;;;5032398;28;20186;-64
2023/03/18 08:33:58;;;;;;;5.10;3.78;;;19.60;99.90;;;;;;5050748;28;20233;-64
2023/03/18 08:36:24;;;;;;;4.43;3.92;;;19.80;99.90;;;;;;5042107;28;20680;-64
2023/03/18 08:38:49;;;;;;;4.50;4.25;;;19.80;99.90;;;;;;5040915;28;20222;-64
2023/03/18 08:41:15;;;;;;;3.78;3.58;;;20.00;99.90;;;;;;5049702;28;20275;-64
2023/03/18 08:43:41;;;;;;;3.70;3.50;;;20.20;99.90;;;;;;5036922;28;20254;-65
2023/03/18 08:46:07;;;;;;;3.63;3.33;;;20.40;99.90;;;;;;5030958;28;20179;-65
2023/03/18 08:48:33;;;;;;;3.42;3.22;;;20.70;99.90;;;;;;5030782;28;20790;-64
2023/03/18 08:51:03;;;;;;;4.55;4.20;;;20.70;99.90;;;;;;5030612;28;20218;-64
2023/03/18 08:53:29;;;;;;;4.22;3.95;;;20.50;99.90;;;;;;5030492;28;20212;-64
2023/03/18 08:55:54;;;;;;;3.53;3.33;;;20.20;99.90;;;;;;5030725;28;20540;-64
2023/03/18 08:58:20;;;;;;;4.13;3.83;;;19.90;99.90;;;;;;5030448;28;20199;-64
2023/03/18 09:00:45;;;;;;;4.30;3.78;;;19.80;99.90;;;;;;5030752;28;20168;-64
2023/03/18 09:03:12;;;;;;;4.03;3.83;;;19.50;99.90;;;;;;5034261;28;20222;-64
2023/03/18 09:05:38;;;;;;;3.40;3.20;;;19.60;99.90;;;;;;5034466;28;20254;-64
2023/03/18 09:08:04;;;;;;;3.95;3.55;;;19.60;99.90;;;;;;5034205;28;20669;-65
2023/03/18 09:10:29;;;;;;;3.75;3.55;;;19.50;99.90;;;;;;5033611;28;20175;-64
2023/03/18 09:12:55;;;;;;;4.05;3.75;;;19.30;99.90;;;;;;5033967;28;20215;-64
2023/03/18 09:15:21;;;;;;;3.90;3.70;;;19.10;99.90;;;;;;5032023;28;20542;-64
2023/03/18 09:17:47;;;;;;;4.00;3.70;;;19.00;99.90;;;;;;5033941;28;20168;-64
2023/03/18 09:20:15;;;;;;;3.92;3.50;;;19.00;99.90;;;;;;5031985;28;20183;-64
2023/03/18 09:22:42;;;;;;;3.35;3.25;;;19.10;99.90;;;;;;5032678;28;20191;-64
2023/03/18 09:25:09;;;;;;;4.22;3.83;;;19.20;99.90;;;;;;5032400;28;20172;-64
2023/03/18 09:27:35;;;;;;;3.67;3.47;;;19.50;99.90;;;;;;5032745;28;20183;-65
2023/03/18 09:30:00;;;;;;;3.78;3.58;;;19.90;99.90;;;;;;5031951;28;20175;-64
2023/03/18 09:32:26;;;;;;;3.70;3.40;;;20.20;99.90;;;;;;5033496;28;20199;-65
2023/03/18 09:34:52;;;;;;;4.25;3.95;;;20.30;99.90;;;;;;5034465;28;20215;-65
2023/03/18 09:37:18;;;;;;;5.20;5.00;;;20.50;99.90;;;;;;5044315;28;20202;-64
2023/03/18 09:39:46;;;;;;;5.10;4.70;;;20.60;99.90;;;;;;5033943;28;20203;-64
2023/03/18 09:42:27;;;;;;;5.53;5.22;;;20.70;99.90;;;;;;5029963;28;20258;-64
2023/03/18 09:44:59;;;;;;;7.10;6.50;;;20.80;99.90;;;;;;5013833;28;20184;-64
2023/03/18 09:47:46;;;;;;;5.38;5.07;;;20.70;99.90;;;;;;5027188;28;20183;-64
2023/03/18 09:50:15;;;;;;;7.78;7.38;;;20.90;99.90;;;;;;5033932;28;20191;-64
2023/03/18 09:52:49;;;;;;;5.40;5.00;;;21.00;99.90;;;;;;5037410;28;20199;-65
2023/03/18 09:55:24;;;;;;;8.02;7.30;;;20.90;99.90;;;;;;5033229;28;20202;-65
2023/03/18 09:57:54;;;;;;;5.82;5.53;;;20.90;99.90;;;;;;5052036;28;20174;-64
2023/03/18 10:00:27;;;;;;;5.72;5.43;;;20.90;99.90;;;;;;5051056;28;20270;-64
2023/03/18 10:03:10;;;;;;;5.25;4.95;;;21.00;99.90;;;;;;5052307;28;20187;-65
2023/03/18 10:05:51;;;;;;;4.35;3.50;;;21.20;99.90;;;;;;5047457;28;20175;-64
2023/03/18 10:08:45;;;;;;;3.40;3.20;;;21.40;99.90;;;;;;5031439;28;20219;-64
2023/03/18 10:11:36;;;;;;;3.70;3.03;;;21.80;99.90;;;;;;5039344;28;20171;-64
2023/03/18 10:14:41;;;;;;;2.83;2.72;;;22.20;99.90;;;;;;5051983;28;20684;-65
2023/03/18 10:17:30;;;;;;;3.40;3.10;;;22.60;99.90;;;;;;5037709;28;20182;-65
2023/03/18 10:19:58;;;;;;;3.67;3.38;;;22.60;99.90;;;;;;5032487;28;20171;-65
2023/03/18 10:22:46;;;;;;;3.58;3.33;;;22.40;99.90;;;;;;5048829;28;20282;-64
2023/03/18 10:25:26;;;;;;;3.47;3.22;;;22.20;99.90;;;;;;5051097;28;20204;-64
2023/03/18 10:28:02;;;;;;;3.50;3.20;;;21.80;99.90;;;;;;5032486;28;20209;-65
2023/03/18 10:30:38;;;;;;;3.80;3.60;;;21.50;99.90;;;;;;5031969;28;20173;-64
2023/03/18 10:33:23;;;;;;;4.35;3.92;;;21.30;99.90;;;;;;5051885;28;20190;-64
2023/03/18 10:36:17;;;;;;;4.57;4.28;;;21.10;99.90;;;;;;5050498;28;20167;-64
2023/03/18 10:38:46;;;;;;;4.93;4.63;;;21.10;99.90;;;;;;5032743;28;20262;-65
2023/03/18 10:41:22;;;;;;;4.32;3.95;;;21.00;99.90;;;;;;5042271;28;20171;-65
2023/03/18 10:43:50;;;;;;;4.38;4.05;;;21.20;99.90;;;;;;5052389;28;20743;-64
2023/03/18 10:46:19;;;;;;;3.72;3.53;;;21.40;99.90;;;;;;5050293;28;20189;-64
2023/03/18 10:48:57;;;;;;;3.75;3.40;;;21.70;99.90;;;;;;5052173;28;20175;-64
2023/03/18 10:51:42;;;;;;;4.20;3.35;;;22.10;99.90;;;;;;5040658;28;20175;-64
2023/03/18 10:54:33;;;;;;;3.70;3.05;;;22.40;99.90;;;;;;5031907;28;20565;-64
2023/03/18 10:56:59;;;;;;;3.47;3.28;;;22.60;99.90;;;;;;5046879;28;20175;-64
2023/03/18 10:59:27;;;;;;;3.50;3.30;;;23.00;99.90;;;;;;5051658;28;20174;-64
2023/03/18 11:02:05;;;;;;;3.50;3.30;;;23.30;99.90;;;;;;5037797;28;20202;-64
2023/03/18 11:04:41;;;;;;;3.30;3.10;;;23.60;99.90;;;;;;5030605;28;20190;-64
2023/03/18 11:07:12;;;;;;;3.63;3.40;;;23.80;99.90;;;;;;5046303;28;20174;-64
2023/03/18 11:09:41;;;;;;;3.83;3.63;;;23.90;99.90;;;;;;5045471;28;20194;-65
2023/03/18 11:12:15;;;;;;;4.22;3.30;;;23.70;99.90;;;;;;5045081;28;20210;-65
2023/03/18 11:14:49;;;;;;;3.20;3.00;;;23.60;99.90;;;;;;5051405;28;20205;-64
2023/03/18 11:17:32;;;;;;;3.13;2.92;;;23.60;99.90;;;;;;5029472;28;20186;-64
2023/03/18 11:20:24;;;;;;;3.10;2.90;;;23.50;99.90;;;;;;5030111;28;20258;-64
2023/03/18 11:22:51;;;;;;;3.20;2.90;;;22.80;99.90;;;;;;5050572;28;20222;-64
2023/03/18 11:25:25;;;;;;;3.33;3.13;;;22.30;99.90;;;;;;5037083;28;20214;-64
2023/03/18 11:28:02;;;;;;;3.75;3.55;;;21.60;99.90;;;;;;5050071;28;20182;-65
2023/03/18 11:30:33;;;;;;;2.85;2.65;;;21.20;99.90;;;;;;5050918;28;20181;-64
2023/03/18 11:33:06;;;;;;;3.72;3.53;;;21.10;99.90;;;;;;5031878;28;20211;-64
2023/03/18 11:35:38;;;;;;;3.92;3.65;;;21.10;99.90;;;;;;5031509;28;20267;-65
2023/03/18 11:38:05;;;;;;;5.35;5.05;;;21.10;99.90;;;;;;5038669;28;20237;-64
2023/03/18 11:40:31;;;;;;;3.25;3.05;;;21.10;99.90;;;;;;5029155;28;20175;-64
2023/03/18 11:43:03;;;;;;;6.18;3.40;;;20.80;99.90;;;;;;5049032;28;20556;-64
2023/03/18 11:45:34;;;;;;;3.35;3.15;;;20.50;99.90;;;;;;5051404;28;20186;-65
2023/03/18 11:48:01;;;;;;;4.60;3.15;;;20.30;99.90;;;;;;5033178;28;20187;-64
2023/03/18 11:50:40;;;;;;;5.25;3.38;;;20.40;99.90;;;;;;5031430;28;20180;-64
2023/03/18 11:53:16;;;;;;;4.18;3.53;;;20.90;99.90;;;;;;5049446;28;20582;-65
2023/03/18 11:56:08;;;;;;;5.78;4.55;;;21.50;99.90;;;;;;5052037;28;20198;-64
2023/03/18 11:59:04;;;;;;;3.60;3.17;;;21.80;99.90;;;;;;5022411;28;20179;-65
2023/03/18 12:01:48;;;;;;;3.90;3.70;;;21.80;99.90;;;;;;5034920;28;20170;-65
2023/03/18 12:04:22;;;;;;;3.88;3.67;;;21.70;99.90;;;;;;5051132;28;20174;-65
2023/03/18 12:06:55;;;;;;;3.75;3.55;;;21.50;99.90;;;;;;5045213;28;20171;-64
2023/03/18 12:09:26;;;;;;;10.93;5.93;;;21.50;99.90;;;;;;5031155;28;20548;-64
2023/03/18 12:12:27;;;;;;;5.18;4.45;;;21.50;99.90;;;;;;5036361;28;20706;-64
2023/03/18 12:15:35;;;;;;;4.85;4.35;;;21.70;99.90;;;;;;4969928;28;20640;-65
2023/03/18 12:18:06;;;;;;;4.05;3.75;;;21.80;99.90;;;;;;5036472;28;20646;-65
2023/03/18 12:20:42;;;;;;;4.68;4.38;;;21.80;99.90;;;;;;5030523;28;20253;-65
2023/03/18 12:23:22;;;;;;;5.65;4.00;;;21.80;99.90;;;;;;5045751;28;20190;-65
2023/03/18 12:25:54;;;;;;;5.15;3.95;;;21.80;99.90;;;;;;5050967;28;20257;-65
2023/03/18 12:28:48;;;;;;;7.72;6.28;;;21.90;99.90;;;;;;5034323;28;20179;-64
2023/03/18 12:31:26;;;;;;;4.20;3.35;;;21.80;99.90;;;;;;5018444;28;20673;-64
2023/03/18 12:34:17;;;;;;;5.63;4.15;;;21.60;99.90;;;;;;5011486;28;20212;-64
2023/03/18 12:37:02;;;;;;;7.55;5.32;;;21.60;99.90;;;;;;5047969;28;20187;-64
2023/03/18 12:39:55;;;;;;;5.18;4.82;;;21.40;99.90;;;;;;5054338;28;20876;-64
2023/03/18 12:42:43;;;;;;;3.58;3.38;;;21.50;99.90;;;;;;5014672;28;20196;-64
2023/03/18 12:45:14;;;;;;;5.93;3.38;;;21.80;99.90;;;;;;5023959;28;20179;-65
2023/03/18 12:47:46;;;;;;;4.78;4.30;;;22.20;99.90;;;;;;5054458;28;20171;-65
2023/03/18 12:50:19;;;;;;;3.03;2.83;;;22.30;99.90;;;;;;5049615;28;20183;-64
2023/03/18 12:52:48;;;;;;;4.78;3.83;;;22.00;99.90;;;;;;5034375;28;20191;-64
2023/03/18 12:55:30;;;;;;;3.50;3.30;;;21.60;99.90;;;;;;5035377;28;20230;-64
2023/03/18 12:58:16;;;;;;;3.70;3.40;;;21.40;99.90;;;;;;5034370;28;20250;-64
2023/03/18 13:00:49;;;;;;;3.45;2.95;;;20.90;99.90;;;;;;5041568;28;20728;-64
2023/03/18 13:03:31;;;;;;;4.03;3.83;;;20.60;99.90;;;;;;5054178;28;20195;-64